Time;durP1;ratioP1;P1;durP2;ratioP2;P2;SDS_P1;SDS_P2;PMS_P1;PMS_P2;Temp;Humidity;BMP_temperature;BMP_pressure;BME280_temperature;BME280_humidity;BME280_pressure;Samples;Min_cycle;Max_cycle;Signal;HPM_P1;HPM_P2
2022/11/16 00:00:47;;;;;;;14.07;10.00;;;;;;;;;;5036876;28;20045;-80
2022/11/16 00:03:13;;;;;;;15.63;9.77;;;;;;;;;;5036733;28;20045;-79
2022/11/16 00:05:39;;;;;;;14.02;10.45;;;;;;;;;;5037156;28;20128;-79
2022/11/16 00:08:05;;;;;;;16.13;9.65;;;;;;;;;;5053415;28;20394;-79
2022/11/16 00:10:31;;;;;;;15.52;10.23;;;;;;;;;;5053342;28;20128;-76
2022/11/16 00:12:57;;;;;;;14.07;10.07;;;;;;;;;;5053104;28;20075;-80
2022/11/16 00:15:23;;;;;;;15.27;10.30;;;;;;;;;;5064295;28;20056;-79
2022/11/16 00:17:49;;;;;;;17.55;10.63;;;;;;;;;;5055658;28;20044;-78
2022/11/16 00:20:16;;;;;;;15.77;11.13;;;;;;;;;;5043432;28;20046;-78
2022/11/16 00:22:42;;;;;;;16.25;10.63;;;;;;;;;;5047345;28;20144;-80
2022/11/16 00:25:08;;;;;;;17.10;10.70;;;;;;;;;;5023958;28;20049;-79
2022/11/16 00:27:34;;;;;;;17.05;11.30;;;;;;;;;;5053338;28;20048;-79
2022/11/16 00:30:00;;;;;;;15.32;9.90;;;;;;;;;;5051969;28;20505;-78
2022/11/16 00:32:26;;;;;;;14.05;9.32;;;;;;;;;;5053227;28;20576;-79
2022/11/16 00:34:52;;;;;;;18.38;11.63;;;;;;;;;;5019429;28;20044;-79
2022/11/16 00:37:18;;;;;;;18.70;12.52;;;;;;;;;;5052997;28;20481;-79
2022/11/16 00:39:44;;;;;;;18.35;12.13;;;;;;;;;;5054197;28;20432;-80
2022/11/16 00:42:10;;;;;;;17.35;11.75;;;;;;;;;;5052849;28;20474;-79
2022/11/16 00:44:36;;;;;;;18.80;12.32;;;;;;;;;;5053021;28;20494;-78
2022/11/16 00:47:02;;;;;;;18.08;11.57;;;;;;;;;;5052273;28;20067;-76
2022/11/16 00:49:28;;;;;;;18.25;11.88;;;;;;;;;;5036060;28;20041;-78
2022/11/16 00:51:54;;;;;;;17.73;11.70;;;;;;;;;;5052321;28;20123;-78
2022/11/16 00:54:21;;;;;;;17.50;11.70;;;;;;;;;;5036057;28;20503;-79
2022/11/16 00:56:47;;;;;;;17.88;12.45;;;;;;;;;;5053762;28;20383;-79
2022/11/16 00:59:13;;;;;;;18.75;12.07;;;;;;;;;;5051968;28;20049;-79
2022/11/16 01:01:39;;;;;;;17.92;11.88;;;;;;;;;;5038163;28;20057;-78
2022/11/16 01:04:05;;;;;;;17.60;12.65;;;;;;;;;;5032589;28;20371;-77
2022/11/16 01:06:31;;;;;;;19.25;12.10;;;;;;;;;;5057676;28;20126;-78
2022/11/16 01:08:57;;;;;;;19.90;11.32;;;;;;;;;;5033712;28;20029;-77
2022/11/16 01:14:08;;;;;;;19.23;12.43;;;;;;;;;;5050822;28;20040;-79
2022/11/16 01:16:34;;;;;;;21.27;13.40;;;;;;;;;;5051988;28;20045;-78
2022/11/16 01:19:00;;;;;;;19.33;12.90;;;;;;;;;;5051925;28;20041;-78
2022/11/16 01:21:26;;;;;;;19.00;12.77;;;;;;;;;;5052001;28;20039;-79
2022/11/16 01:23:54;;;;;;;22.92;14.20;;;;;;;;;;5053181;28;20098;-79
2022/11/16 01:26:20;;;;;;;21.10;13.20;;;;;;;;;;5051708;28;20417;-78
2022/11/16 01:28:46;;;;;;;20.25;13.20;;;;;;;;;;5051790;28;20045;-78
2022/11/16 01:31:12;;;;;;;20.73;13.52;;;;;;;;;;5051206;28;20045;-79
2022/11/16 01:33:39;;;;;;;19.92;11.75;;;;;;;;;;5051528;28;20136;-79
2022/11/16 01:36:16;;;;;;;22.33;14.38;;;;;;;;;;5051398;28;20036;-76
2022/11/16 01:38:45;;;;;;;23.15;14.32;;;;;;;;;;5052058;28;20055;-78
2022/11/16 01:41:15;;;;;;;23.55;14.25;;;;;;;;;;5051305;28;20057;-78
2022/11/16 01:43:52;;;;;;;21.08;13.68;;;;;;;;;;5037867;28;20045;-77
2022/11/16 01:46:18;;;;;;;23.42;14.10;;;;;;;;;;5050449;28;20116;-78
2022/11/16 01:48:45;;;;;;;24.05;14.68;;;;;;;;;;5038627;28;20043;-79
2022/11/16 01:51:12;;;;;;;23.33;14.50;;;;;;;;;;5051677;28;20573;-77
2022/11/16 01:53:38;;;;;;;22.70;14.88;;;;;;;;;;5085014;28;20047;-79
2022/11/16 01:56:04;;;;;;;24.27;14.60;;;;;;;;;;5052788;28;20041;-78
2022/11/16 01:58:30;;;;;;;23.17;14.88;;;;;;;;;;5051273;28;20052;-78
2022/11/16 02:00:57;;;;;;;26.40;15.07;;;;;;;;;;5051634;28;20099;-79
2022/11/16 02:03:23;;;;;;;23.17;14.10;;;;;;;;;;5051468;28;20501;-77
2022/11/16 02:06:04;;;;;;;25.30;15.05;;;;;;;;;;5051487;28;20064;-80
2022/11/16 02:11:36;;;;;;;25.70;15.18;;;;;;;;;;5051158;28;20048;-79
2022/11/16 02:14:05;;;;;;;25.80;16.52;;;;;;;;;;5050909;28;20041;-78
2022/11/16 02:16:41;;;;;;;23.55;15.50;;;;;;;;;;5050664;28;20083;-79
2022/11/16 02:19:19;;;;;;;27.38;16.15;;;;;;;;;;5060580;28;20045;-82
2022/11/16 02:21:58;;;;;;;28.67;17.38;;;;;;;;;;5066821;28;20029;-81
2022/11/16 02:24:27;;;;;;;27.08;16.65;;;;;;;;;;5046509;28;20389;-79
2022/11/16 02:27:12;;;;;;;28.58;16.50;;;;;;;;;;5042905;28;20037;-79
2022/11/16 02:29:41;;;;;;;27.02;16.88;;;;;;;;;;5043208;28;20576;-79
2022/11/16 02:32:15;;;;;;;27.50;16.70;;;;;;;;;;5058743;28;20049;-80
2022/11/16 02:34:44;;;;;;;26.63;17.08;;;;;;;;;;5056079;28;20054;-79
2022/11/16 02:37:11;;;;;;;26.15;16.38;;;;;;;;;;5072661;28;20048;-82
2022/11/16 02:39:38;;;;;;;26.38;17.13;;;;;;;;;;5070797;28;20040;-79
2022/11/16 02:42:08;;;;;;;28.25;17.73;;;;;;;;;;5070826;28;20045;-78
2022/11/16 02:44:35;;;;;;;28.10;17.05;;;;;;;;;;5056618;28;20395;-80
2022/11/16 02:47:04;;;;;;;28.98;18.17;;;;;;;;;;5070956;28;20048;-80
2022/11/16 02:49:33;;;;;;;28.02;16.02;;;;;;;;;;5070418;28;20067;-80
2022/11/16 02:51:59;;;;;;;30.02;17.73;;;;;;;;;;5064473;28;20049;-80
2022/11/16 02:54:25;;;;;;;26.98;17.08;;;;;;;;;;5051877;28;20075;-79
2022/11/16 02:57:04;;;;;;;27.85;17.27;;;;;;;;;;5051791;28;20037;-80
2022/11/16 02:59:37;;;;;;;27.92;16.63;;;;;;;;;;5068570;28;20057;-79
2022/11/16 03:02:16;;;;;;;28.83;17.77;;;;;;;;;;5058418;28;20116;-81
2022/11/16 03:04:48;;;;;;;25.98;16.27;;;;;;;;;;5067432;28;20076;-80
2022/11/16 03:07:15;;;;;;;29.98;16.83;;;;;;;;;;5047055;28;20036;-80
2022/11/16 03:09:43;;;;;;;25.50;16.48;;;;;;;;;;5074463;28;20101;-81
2022/11/16 03:12:14;;;;;;;26.17;16.35;;;;;;;;;;5074476;28;20044;-81
2022/11/16 03:14:43;;;;;;;25.67;16.88;;;;;;;;;;5074812;28;20037;-80
2022/11/16 03:17:22;;;;;;;28.73;17.67;;;;;;;;;;5055954;28;20498;-83
2022/11/16 03:19:52;;;;;;;27.00;16.55;;;;;;;;;;5066534;28;20040;-80
2022/11/16 03:22:25;;;;;;;31.17;18.35;;;;;;;;;;5073933;28;20032;-82
2022/11/16 03:24:52;;;;;;;27.35;17.02;;;;;;;;;;5057383;28;20045;-81
2022/11/16 03:27:34;;;;;;;25.60;16.42;;;;;;;;;;5073198;28;20040;-81
2022/11/16 03:30:04;;;;;;;25.67;15.95;;;;;;;;;;5071907;28;20124;-81
2022/11/16 03:32:56;;;;;;;24.10;16.27;;;;;;;;;;5055164;28;20407;-81
2022/11/16 03:35:26;;;;;;;25.52;16.25;;;;;;;;;;5070845;28;20053;-81
2022/11/16 03:37:53;;;;;;;27.90;16.60;;;;;;;;;;5059928;28;20577;-81
2022/11/16 03:40:20;;;;;;;28.25;17.27;;;;;;;;;;5073515;28;20045;-82
2022/11/16 03:42:48;;;;;;;27.40;16.98;;;;;;;;;;5090920;28;20055;-85
2022/11/16 03:45:16;;;;;;;27.65;16.63;;;;;;;;;;5074121;28;20052;-80
2022/11/16 03:47:42;;;;;;;25.17;16.77;;;;;;;;;;5073593;28;20051;-80
2022/11/16 03:50:09;;;;;;;24.25;16.10;;;;;;;;;;5048287;28;20071;-82
2022/11/16 03:52:35;;;;;;;28.30;17.73;;;;;;;;;;5053278;28;20045;-81
2022/11/16 03:55:01;;;;;;;25.45;16.45;;;;;;;;;;5043918;28;20044;-81
2022/11/16 03:57:27;;;;;;;29.27;17.95;;;;;;;;;;5056986;28;20497;-80
2022/11/16 03:59:53;;;;;;;28.00;17.42;;;;;;;;;;5054170;28;20044;-81
2022/11/16 04:02:19;;;;;;;28.20;17.27;;;;;;;;;;5064593;28;20055;-81
2022/11/16 04:24:23;;;;;;;25.30;16.55;;;;;;;;;;5073628;28;20040;-83
2022/11/16 04:29:37;;;;;;;29.05;17.40;;;;;;;;;;5057434;28;20131;-83
2022/11/16 04:37:47;;;;;;;29.08;18.38;;;;;;;;;;5069441;28;20053;-83
2022/11/16 04:40:17;;;;;;;29.55;19.17;;;;;;;;;;5064210;28;20044;-83
2022/11/16 04:42:43;;;;;;;26.20;15.95;;;;;;;;;;5072253;28;20051;-82
2022/11/16 04:47:54;;;;;;;32.83;19.80;;;;;;;;;;5072794;28;20032;-83
2022/11/16 04:50:20;;;;;;;29.58;18.92;;;;;;;;;;5072713;28;20066;-81
2022/11/16 04:52:46;;;;;;;30.77;19.17;;;;;;;;;;5073140;28;20029;-80
2022/11/16 04:55:12;;;;;;;27.90;18.88;;;;;;;;;;5072800;28;20113;-84
2022/11/16 04:57:39;;;;;;;31.10;20.52;;;;;;;;;;5054956;28;20094;-84
2022/11/16 05:00:06;;;;;;;33.58;20.45;;;;;;;;;;5059314;28;20408;-84
2022/11/16 05:02:32;;;;;;;31.48;20.23;;;;;;;;;;5052289;28;20044;-84
2022/11/16 05:04:58;;;;;;;35.30;20.70;;;;;;;;;;5050734;28;20394;-80
2022/11/16 05:07:24;;;;;;;35.10;21.35;;;;;;;;;;5046222;28;20047;-81
2022/11/16 05:09:50;;;;;;;33.20;20.15;;;;;;;;;;5088678;28;20131;-81
2022/11/16 05:12:18;;;;;;;37.33;20.45;;;;;;;;;;5063022;28;20033;-81
2022/11/16 05:14:44;;;;;;;33.35;20.33;;;;;;;;;;5066902;28;20094;-81
2022/11/16 05:17:10;;;;;;;35.28;20.65;;;;;;;;;;5055452;28;20052;-80
2022/11/16 05:22:21;;;;;;;31.15;19.08;;;;;;;;;;5040380;28;20053;-85
2022/11/16 05:24:47;;;;;;;34.10;20.38;;;;;;;;;;5065639;28;20124;-85
2022/11/16 05:27:15;;;;;;;33.25;20.02;;;;;;;;;;5085003;28;20074;-85
2022/11/16 05:29:41;;;;;;;29.63;18.52;;;;;;;;;;5065337;28;20051;-84
2022/11/16 05:32:08;;;;;;;33.60;20.35;;;;;;;;;;5041084;28;20099;-85
2022/11/16 05:34:34;;;;;;;31.40;19.38;;;;;;;;;;5071546;28;20044;-81
2022/11/16 05:37:00;;;;;;;34.17;19.70;;;;;;;;;;5071724;28;20048;-80
2022/11/16 05:39:26;;;;;;;34.83;20.58;;;;;;;;;;5071734;28;20489;-80
2022/11/16 05:41:52;;;;;;;33.05;19.60;;;;;;;;;;5071641;28;20436;-80
2022/11/16 05:44:18;;;;;;;33.88;20.48;;;;;;;;;;5068674;28;20041;-80
2022/11/16 05:46:45;;;;;;;31.85;19.42;;;;;;;;;;5060165;28;20048;-80
2022/11/16 05:49:11;;;;;;;33.50;19.30;;;;;;;;;;5071615;28;20041;-80
2022/11/16 05:51:39;;;;;;;29.30;18.80;;;;;;;;;;5071327;28;20064;-80
2022/11/16 05:54:05;;;;;;;36.22;19.65;;;;;;;;;;5071741;28;20044;-80
2022/11/16 05:56:32;;;;;;;30.30;18.42;;;;;;;;;;5066086;28;20448;-79
2022/11/16 05:58:58;;;;;;;32.20;18.15;;;;;;;;;;5068761;28;20041;-80
2022/11/16 06:01:24;;;;;;;30.00;17.25;;;;;;;;;;5076740;28;20040;-80
2022/11/16 06:03:50;;;;;;;31.30;16.77;;;;;;;;;;5074588;28;20036;-80
2022/11/16 06:06:17;;;;;;;32.47;17.77;;;;;;;;;;5058729;28;20033;-80
2022/11/16 06:08:43;;;;;;;31.38;17.45;;;;;;;;;;5074200;28;20112;-85
2022/11/16 06:11:09;;;;;;;34.75;18.25;;;;;;;;;;5072508;28;20174;-85
2022/11/16 06:13:36;;;;;;;25.40;15.05;;;;;;;;;;5053829;28;20110;-86
2022/11/16 06:16:03;;;;;;;26.02;15.18;;;;;;;;;;5049135;28;20070;-85
2022/11/16 06:18:29;;;;;;;26.85;14.93;;;;;;;;;;5059283;28;20128;-86
2022/11/16 06:20:55;;;;;;;24.55;14.63;;;;;;;;;;5057173;28;20127;-86
2022/11/16 06:23:21;;;;;;;23.80;14.07;;;;;;;;;;5056105;28;20037;-86
2022/11/16 06:25:47;;;;;;;27.02;14.73;;;;;;;;;;5044128;28;20546;-82
2022/11/16 06:28:13;;;;;;;29.33;15.10;;;;;;;;;;5073982;28;20503;-82
2022/11/16 06:30:40;;;;;;;24.55;12.98;;;;;;;;;;5069515;28;20315;-82
2022/11/16 06:33:06;;;;;;;26.63;14.85;;;;;;;;;;5054632;28;20092;-82
2022/11/16 06:35:32;;;;;;;23.95;13.70;;;;;;;;;;5069905;28;20048;-82
2022/11/16 06:37:58;;;;;;;24.70;14.13;;;;;;;;;;5068280;28;20048;-82
2022/11/16 06:40:25;;;;;;;23.52;13.13;;;;;;;;;;5067948;28;20047;-82
2022/11/16 06:42:51;;;;;;;23.85;12.30;;;;;;;;;;5058240;28;20394;-82
2022/11/16 06:45:17;;;;;;;22.67;11.57;;;;;;;;;;5058535;28;20115;-82
2022/11/16 06:47:43;;;;;;;22.08;10.95;;;;;;;;;;5074500;28;20037;-82
2022/11/16 06:50:09;;;;;;;18.33;10.25;;;;;;;;;;5066264;28;20509;-82
2022/11/16 06:52:35;;;;;;;17.15;9.70;;;;;;;;;;5069823;28;20078;-83
2022/11/16 06:55:01;;;;;;;18.02;9.82;;;;;;;;;;5067164;28;20041;-82
2022/11/16 06:57:27;;;;;;;19.17;9.50;;;;;;;;;;5068092;28;20397;-82
2022/11/16 06:59:54;;;;;;;14.18;9.30;;;;;;;;;;5057678;28;20047;-83
2022/11/16 07:02:21;;;;;;;16.08;9.55;;;;;;;;;;5074752;28;20041;-83
2022/11/16 07:04:47;;;;;;;20.27;9.30;;;;;;;;;;5043619;28;20028;-83
2022/11/16 07:07:15;;;;;;;15.60;9.00;;;;;;;;;;5074789;28;20040;-82
2022/11/16 07:09:43;;;;;;;14.60;8.60;;;;;;;;;;5072735;28;20044;-83
2022/11/16 07:12:09;;;;;;;16.70;9.05;;;;;;;;;;5054525;28;20076;-83
2022/11/16 07:14:35;;;;;;;14.07;8.77;;;;;;;;;;5069639;28;20044;-83
2022/11/16 07:17:01;;;;;;;14.93;8.27;;;;;;;;;;5034803;28;20053;-83
2022/11/16 07:19:27;;;;;;;13.85;8.23;;;;;;;;;;5066576;28;20044;-83
2022/11/16 07:21:53;;;;;;;16.15;8.13;;;;;;;;;;5074101;28;20037;-83
2022/11/16 07:24:19;;;;;;;12.82;7.57;;;;;;;;;;5074329;28;20072;-83
2022/11/16 07:26:46;;;;;;;13.63;7.28;;;;;;;;;;5074288;28;20469;-83
2022/11/16 07:29:12;;;;;;;16.02;7.20;;;;;;;;;;5033346;28;20090;-83
2022/11/16 07:31:39;;;;;;;15.15;7.82;;;;;;;;;;5064017;28;20033;-83
2022/11/16 07:34:05;;;;;;;17.00;8.88;;;;;;;;;;5056286;28;20044;-83
2022/11/16 07:36:31;;;;;;;19.77;10.38;;;;;;;;;;5065373;28;20218;-83
2022/11/16 07:38:57;;;;;;;20.55;11.55;;;;;;;;;;5067879;28;20485;-83
2022/11/16 07:41:23;;;;;;;26.92;15.15;;;;;;;;;;5044723;28;20502;-83
2022/11/16 07:43:50;;;;;;;27.77;13.88;;;;;;;;;;5073748;28;20048;-83
2022/11/16 07:46:18;;;;;;;23.75;13.18;;;;;;;;;;5068844;28;20140;-83
2022/11/16 07:48:44;;;;;;;27.70;13.65;;;;;;;;;;5065038;28;20036;-83
2022/11/16 07:51:12;;;;;;;27.67;13.93;;;;;;;;;;5059360;28;20489;-83
2022/11/16 07:53:38;;;;;;;31.27;15.02;;;;;;;;;;5065343;28;20068;-83
2022/11/16 07:56:04;;;;;;;35.08;15.18;;;;;;;;;;5068781;28;20040;-84
2022/11/16 07:58:34;;;;;;;30.88;14.52;;;;;;;;;;5073729;28;20044;-83
2022/11/16 08:01:04;;;;;;;28.35;14.85;;;;;;;;;;5074887;28;20048;-83
2022/11/16 08:03:31;;;;;;;34.25;16.38;;;;;;;;;;5068111;28;20045;-84
2022/11/16 08:05:58;;;;;;;31.33;15.38;;;;;;;;;;5053892;28;20512;-84
2022/11/16 08:08:24;;;;;;;32.40;15.32;;;;;;;;;;5051017;28;20044;-84
2022/11/16 08:10:50;;;;;;;29.90;15.05;;;;;;;;;;5066008;28;20070;-84
2022/11/16 08:13:16;;;;;;;38.05;15.45;;;;;;;;;;5073676;28;20393;-84
2022/11/16 08:15:43;;;;;;;29.00;14.93;;;;;;;;;;5064569;28;20391;-84
2022/11/16 08:18:09;;;;;;;31.63;15.02;;;;;;;;;;5068535;28;20056;-85
2022/11/16 08:20:35;;;;;;;26.20;13.98;;;;;;;;;;5061147;28;20154;-85
2022/11/16 08:23:02;;;;;;;24.63;13.50;;;;;;;;;;5056756;28;20443;-85
2022/11/16 08:25:28;;;;;;;27.90;14.85;;;;;;;;;;5052861;28;20041;-85
2022/11/16 08:27:54;;;;;;;27.98;14.15;;;;;;;;;;5073599;28;20033;-85
2022/11/16 08:30:20;;;;;;;28.80;13.30;;;;;;;;;;5067899;28;20550;-84
2022/11/16 08:32:46;;;;;;;24.35;14.05;;;;;;;;;;5042528;28;20094;-85
2022/11/16 08:35:12;;;;;;;24.20;13.23;;;;;;;;;;5060892;28;20045;-85
2022/11/16 08:37:38;;;;;;;27.70;14.23;;;;;;;;;;5058470;28;20036;-85
2022/11/16 08:40:04;;;;;;;27.27;13.45;;;;;;;;;;5072698;28;20072;-85
2022/11/16 08:42:30;;;;;;;25.77;14.48;;;;;;;;;;5072715;28;20055;-83
2022/11/16 08:44:56;;;;;;;27.88;14.23;;;;;;;;;;5072683;28;20570;-83
2022/11/16 08:47:22;;;;;;;20.60;12.40;;;;;;;;;;5041966;28;20041;-83
2022/11/16 08:49:49;;;;;;;23.92;13.05;;;;;;;;;;5056027;28;20048;-83
2022/11/16 08:52:15;;;;;;;25.38;13.45;;;;;;;;;;5061446;28;20045;-83
2022/11/16 08:54:41;;;;;;;27.77;13.65;;;;;;;;;;5056314;28;20392;-83
2022/11/16 08:57:07;;;;;;;21.85;13.20;;;;;;;;;;5072352;28;20066;-83
2022/11/16 08:59:33;;;;;;;29.85;14.13;;;;;;;;;;5070164;28;20045;-83
2022/11/16 09:01:59;;;;;;;24.83;14.15;;;;;;;;;;5052378;28;20094;-82
2022/11/16 09:04:25;;;;;;;30.63;15.20;;;;;;;;;;5052494;28;20071;-83
2022/11/16 09:06:51;;;;;;;22.23;11.95;;;;;;;;;;5055723;28;20040;-83
2022/11/16 09:09:18;;;;;;;27.23;14.50;;;;;;;;;;5055740;28;20047;-83
2022/11/16 09:11:44;;;;;;;26.10;15.02;;;;;;;;;;5055930;28;20036;-83
2022/11/16 09:14:10;;;;;;;24.52;14.18;;;;;;;;;;5071788;28;20051;-82
2022/11/16 09:16:36;;;;;;;24.50;13.95;;;;;;;;;;5069204;28;20052;-82
2022/11/16 09:19:02;;;;;;;22.65;14.27;;;;;;;;;;5060835;28;20519;-82
2022/11/16 09:21:29;;;;;;;24.25;14.30;;;;;;;;;;5058038;28;20111;-83
2022/11/16 09:23:56;;;;;;;25.73;14.85;;;;;;;;;;5055211;28;20044;-82
2022/11/16 09:26:23;;;;;;;21.17;13.48;;;;;;;;;;5071793;28;20526;-82
2022/11/16 09:28:56;;;;;;;22.00;13.35;;;;;;;;;;5062882;28;20063;-83
2022/11/16 09:31:23;;;;;;;18.98;13.40;;;;;;;;;;5051559;28;20091;-83
2022/11/16 09:33:50;;;;;;;19.85;13.30;;;;;;;;;;5051869;28;20094;-82
2022/11/16 09:36:16;;;;;;;22.02;12.73;;;;;;;;;;5058314;28;20089;-83
2022/11/16 09:38:43;;;;;;;17.88;12.05;;;;;;;;;;5071910;28;20079;-82
2022/11/16 09:41:16;;;;;;;17.40;10.98;;;;;;;;;;5054562;28;20040;-82
2022/11/16 09:43:49;;;;;;;16.75;11.25;;;;;;;;;;5055056;28;20090;-83
2022/11/16 09:46:35;;;;;;;18.58;9.95;;;;;;;;;;5052353;28;20435;-83
2022/11/16 09:49:02;;;;;;;14.35;9.80;;;;;;;;;;5065283;28;20051;-83
2022/11/16 09:51:31;;;;;;;16.75;9.85;;;;;;;;;;5051210;28;20041;-83
2022/11/16 09:53:59;;;;;;;13.63;8.95;;;;;;;;;;5047409;28;20079;-83
2022/11/16 09:56:26;;;;;;;16.40;8.65;;;;;;;;;;5071332;28;20374;-83
2022/11/16 09:59:00;;;;;;;12.23;8.23;;;;;;;;;;5054803;28;20144;-83
2022/11/16 10:01:30;;;;;;;14.23;8.63;;;;;;;;;;5050542;28;20040;-83
2022/11/16 10:04:01;;;;;;;14.68;8.30;;;;;;;;;;5052889;28;20048;-83
2022/11/16 10:06:47;;;;;;;13.07;8.98;;;;;;;;;;5053500;28;20122;-82
2022/11/16 10:09:13;;;;;;;13.02;8.48;;;;;;;;;;5042892;28;20524;-82
2022/11/16 10:11:39;;;;;;;13.02;9.15;;;;;;;;;;5053542;28;20056;-84
2022/11/16 10:14:18;;;;;;;15.85;9.35;;;;;;;;;;5071695;28;20040;-81
2022/11/16 10:17:20;;;;;;;13.70;9.60;;;;;;;;;;5050666;28;20037;-81
2022/11/16 10:19:46;;;;;;;12.73;8.65;;;;;;;;;;5009013;28;20446;-81
2022/11/16 10:22:12;;;;;;;13.55;8.05;;;;;;;;;;5059010;28;20132;-83
2022/11/16 10:24:38;;;;;;;13.57;7.45;;;;;;;;;;5058412;28;20045;-82
2022/11/16 10:27:27;;;;;;;15.32;6.88;;;;;;;;;;5065941;28;20037;-81
2022/11/16 10:30:11;;;;;;;13.00;6.32;;;;;;;;;;5063320;28;20084;-81
2022/11/16 10:32:46;;;;;;;9.27;5.63;;;;;;;;;;5066796;28;20040;-81
2022/11/16 10:35:15;;;;;;;10.15;5.18;;;;;;;;;;5062862;28;20049;-80
2022/11/16 10:37:51;;;;;;;11.55;4.65;;;;;;;;;;5070967;28;20089;-81
2022/11/16 10:40:20;;;;;;;10.25;4.80;;;;;;;;;;5072646;28;20048;-81
2022/11/16 10:42:53;;;;;;;8.88;4.35;;;;;;;;;;5072679;28;20045;-80
2022/11/16 10:45:23;;;;;;;9.98;4.60;;;;;;;;;;5045086;28;20500;-84
2022/11/16 10:47:53;;;;;;;10.63;4.80;;;;;;;;;;5067546;28;20494;-83
2022/11/16 10:50:32;;;;;;;8.15;4.40;;;;;;;;;;5053266;28;20068;-83
2022/11/16 10:52:59;;;;;;;7.57;3.83;;;;;;;;;;5058985;28;20493;-84
2022/11/16 10:55:27;;;;;;;8.93;3.80;;;;;;;;;;5062224;28;20103;-83
2022/11/16 10:57:55;;;;;;;7.55;3.45;;;;;;;;;;5065691;28;20048;-82
2022/11/16 11:00:33;;;;;;;14.50;3.38;;;;;;;;;;5060780;28;20516;-83
2022/11/16 11:02:59;;;;;;;9.85;3.67;;;;;;;;;;5054891;28;20055;-83
2022/11/16 11:05:25;;;;;;;9.85;3.20;;;;;;;;;;5043505;28;20045;-83
2022/11/16 11:08:00;;;;;;;6.57;3.22;;;;;;;;;;5056646;28;20098;-83
2022/11/16 11:10:31;;;;;;;7.05;3.08;;;;;;;;;;5050932;28;20163;-83
2022/11/16 11:13:20;;;;;;;9.38;3.25;;;;;;;;;;5051576;28;20063;-83
2022/11/16 11:15:47;;;;;;;6.72;3.30;;;;;;;;;;5061509;28;20072;-83
2022/11/16 11:18:25;;;;;;;10.35;3.05;;;;;;;;;;5058564;28;20128;-83
2022/11/16 11:20:57;;;;;;;7.85;2.70;;;;;;;;;;5064792;28;20048;-83
2022/11/16 11:23:24;;;;;;;5.95;2.70;;;;;;;;;;5068273;28;20044;-83
2022/11/16 11:25:55;;;;;;;7.32;3.63;;;;;;;;;;5059180;28;20040;-83
2022/11/16 11:28:26;;;;;;;8.32;3.10;;;;;;;;;;5074452;28;20090;-83
2022/11/16 11:30:58;;;;;;;5.05;2.70;;;;;;;;;;5074618;28;20041;-82
2022/11/16 11:33:26;;;;;;;9.30;3.08;;;;;;;;;;5074295;28;20078;-83
2022/11/16 11:36:03;;;;;;;10.25;2.83;;;;;;;;;;5056853;28;20049;-83
2022/11/16 11:38:30;;;;;;;9.93;3.05;;;;;;;;;;5065412;28;20048;-83
2022/11/16 11:40:57;;;;;;;10.55;2.83;;;;;;;;;;5057136;28;20045;-83
2022/11/16 11:43:24;;;;;;;10.02;3.22;;;;;;;;;;5054020;28;20037;-83
2022/11/16 11:45:56;;;;;;;14.23;3.53;;;;;;;;;;5069500;28;20036;-82
2022/11/16 11:48:28;;;;;;;8.52;2.60;;;;;;;;;;5073754;28;20182;-83
2022/11/16 11:50:55;;;;;;;9.38;2.88;;;;;;;;;;5073250;28;20508;-83
2022/11/16 11:53:41;;;;;;;9.18;2.50;;;;;;;;;;5061352;28;20040;-83
2022/11/16 11:56:09;;;;;;;9.32;3.33;;;;;;;;;;5073824;28;20036;-82
2022/11/16 11:58:38;;;;;;;10.32;3.03;;;;;;;;;;5073901;28;20123;-83
2022/11/16 12:01:23;;;;;;;8.70;2.80;;;;;;;;;;5073582;28;20119;-83
2022/11/16 12:03:58;;;;;;;14.20;2.92;;;;;;;;;;5064762;28;20536;-83
2022/11/16 12:06:27;;;;;;;11.60;3.05;;;;;;;;;;5067796;28;20048;-82
2022/11/16 12:08:59;;;;;;;8.98;3.08;;;;;;;;;;5064154;28;20044;-83
2022/11/16 12:11:37;;;;;;;12.10;3.30;;;;;;;;;;5071184;28;20079;-82
2022/11/16 12:14:03;;;;;;;11.57;3.78;;;;;;;;;;5053556;28;20087;-83
2022/11/16 12:16:44;;;;;;;14.05;4.30;;;;;;;;;;5052777;28;20095;-82
2022/11/16 12:19:20;;;;;;;14.63;4.53;;;;;;;;;;5053357;28;20057;-83
2022/11/16 12:22:04;;;;;;;12.40;3.90;;;;;;;;;;5056223;28;20546;-77
2022/11/16 12:24:40;;;;;;;11.48;3.60;;;;;;;;;;5073424;28;20053;-76
2022/11/16 12:27:13;;;;;;;12.23;4.22;;;;;;;;;;5041966;28;20068;-76
2022/11/16 12:29:45;;;;;;;11.63;3.70;;;;;;;;;;5064570;28;20421;-77
2022/11/16 12:32:24;;;;;;;13.25;3.60;;;;;;;;;;5055211;28;20591;-76
2022/11/16 12:35:02;;;;;;;13.38;3.78;;;;;;;;;;5062187;28;20048;-77
2022/11/16 12:37:38;;;;;;;12.63;3.50;;;;;;;;;;5072536;28;20049;-76
2022/11/16 12:40:04;;;;;;;;;;;;;;;;;;5107520;28;20509;-77
2022/11/16 12:42:50;;;;;;;11.52;3.75;;;;;;;;;;5072630;28;19950;-76
2022/11/16 12:45:25;;;;;;;10.63;3.45;;;;;;;;;;5045822;28;20029;-76
2022/11/16 12:48:10;;;;;;;11.30;3.00;;;;;;;;;;5070737;28;20479;-76
2022/11/16 12:50:42;;;;;;;9.02;2.72;;;;;;;;;;5072292;28;20055;-76
2022/11/16 12:53:15;;;;;;;11.40;3.00;;;;;;;;;;5072326;28;20033;-76
2022/11/16 12:55:47;;;;;;;12.00;3.00;;;;;;;;;;5072180;28;20045;-76
2022/11/16 12:58:13;;;;;;;6.97;2.50;;;;;;;;;;5050781;28;20036;-76
2022/11/16 13:00:58;;;;;;;9.27;3.20;;;;;;;;;;5063487;28;20036;-77
2022/11/16 13:03:27;;;;;;;8.30;2.40;;;;;;;;;;5072255;28;20040;-82
2022/11/16 13:05:59;;;;;;;9.07;2.40;;;;;;;;;;5106994;28;20089;-82
2022/11/16 13:08:52;;;;;;;9.40;2.15;;;;;;;;;;5052856;28;20079;-82
2022/11/16 13:11:20;;;;;;;6.78;1.98;;;;;;;;;;5028799;28;20052;-82
2022/11/16 13:13:48;;;;;;;6.05;2.17;;;;;;;;;;5055695;28;20042;-82
2022/11/16 13:16:16;;;;;;;8.05;2.10;;;;;;;;;;5058624;28;20119;-82
2022/11/16 13:18:43;;;;;;;11.50;2.85;;;;;;;;;;5027492;28;20095;-82
2022/11/16 13:21:28;;;;;;;6.50;2.10;;;;;;;;;;5060186;28;20494;-81
2022/11/16 13:23:54;;;;;;;8.73;2.25;;;;;;;;;;5046423;28;20043;-81
2022/11/16 13:26:23;;;;;;;12.18;2.92;;;;;;;;;;5067838;28;20036;-76
2022/11/16 13:29:06;;;;;;;10.60;2.80;;;;;;;;;;5071262;28;20047;-76
2022/11/16 13:31:42;;;;;;;11.02;2.45;;;;;;;;;;5061919;28;20044;-79
2022/11/16 13:34:13;;;;;;;11.02;2.38;;;;;;;;;;5052348;28;20045;-82
2022/11/16 13:36:44;;;;;;;8.02;2.13;;;;;;;;;;5052807;28;20056;-83
2022/11/16 13:39:14;;;;;;;10.65;2.95;;;;;;;;;;5054456;28;20041;-82
2022/11/16 13:41:41;;;;;;;9.18;2.67;;;;;;;;;;5071699;28;20501;-77
2022/11/16 13:44:27;;;;;;;9.00;2.78;;;;;;;;;;5069937;28;20121;-77
2022/11/16 13:46:53;;;;;;;11.23;3.22;;;;;;;;;;5044913;28;20067;-77
2022/11/16 13:49:37;;;;;;;10.45;2.70;;;;;;;;;;5071571;28;20490;-77
2022/11/16 13:52:07;;;;;;;14.45;3.38;;;;;;;;;;5071832;28;20178;-77
2022/11/16 13:54:35;;;;;;;10.55;3.35;;;;;;;;;;5053953;28;20036;-77
2022/11/16 13:57:03;;;;;;;12.32;3.70;;;;;;;;;;5051487;28;20049;-76
2022/11/16 13:59:31;;;;;;;10.63;3.40;;;;;;;;;;5052842;28;20048;-76
2022/11/16 14:02:24;;;;;;;10.50;3.38;;;;;;;;;;5071225;28;20032;-76
2022/11/16 14:05:05;;;;;;;10.73;3.40;;;;;;;;;;5054691;28;20473;-77
2022/11/16 14:07:34;;;;;;;14.07;4.05;;;;;;;;;;5071548;28;20670;-76
2022/11/16 14:10:04;;;;;;;15.10;3.20;;;;;;;;;;5070717;28;20096;-77
2022/11/16 14:12:51;;;;;;;8.75;2.60;;;;;;;;;;5043991;28;20037;-75
2022/11/16 14:15:22;;;;;;;12.27;3.42;;;;;;;;;;5071659;28;20087;-76
2022/11/16 14:17:49;;;;;;;8.93;2.55;;;;;;;;;;5054663;28;20044;-77
2022/11/16 14:20:22;;;;;;;14.88;3.00;;;;;;;;;;5071439;28;20071;-77
2022/11/16 14:22:55;;;;;;;11.73;2.53;;;;;;;;;;5072210;28;20394;-77
2022/11/16 14:25:33;;;;;;;11.60;2.70;;;;;;;;;;5050777;28;20609;-77
2022/11/16 14:28:06;;;;;;;8.73;2.47;;;;;;;;;;5059151;28;20044;-77
2022/11/16 14:30:43;;;;;;;10.18;2.67;;;;;;;;;;5069054;28;20051;-77
2022/11/16 14:33:13;;;;;;;8.95;2.42;;;;;;;;;;5059803;28;20047;-77
2022/11/16 14:35:39;;;;;;;10.80;2.60;;;;;;;;;;5074003;28;20044;-76
2022/11/16 14:38:07;;;;;;;11.25;2.20;;;;;;;;;;5074924;28;20039;-76
2022/11/16 14:40:44;;;;;;;9.13;2.78;;;;;;;;;;5071170;28;20072;-77
2022/11/16 14:43:19;;;;;;;11.57;2.78;;;;;;;;;;5071151;28;20043;-76
2022/11/16 14:45:52;;;;;;;8.88;2.40;;;;;;;;;;5070782;28;20032;-81
2022/11/16 14:48:20;;;;;;;9.68;2.83;;;;;;;;;;5059109;28;20025;-82
2022/11/16 14:51:15;;;;;;;8.20;2.53;;;;;;;;;;5058241;28;20041;-81
2022/11/16 14:53:45;;;;;;;8.80;2.60;;;;;;;;;;4973235;28;20050;-81
2022/11/16 14:56:13;;;;;;;9.75;2.25;;;;;;;;;;5054251;28;20455;-81
2022/11/16 14:58:39;;;;;;;13.20;2.80;;;;;;;;;;5050758;28;20063;-82
2022/11/16 15:01:07;;;;;;;12.05;2.70;;;;;;;;;;5054758;28;20056;-77
2022/11/16 15:03:39;;;;;;;11.13;2.95;;;;;;;;;;5061659;28;20072;-76
2022/11/16 15:06:06;;;;;;;16.48;3.45;;;;;;;;;;5060438;28;20120;-76
2022/11/16 15:08:37;;;;;;;11.13;2.35;;;;;;;;;;5068973;28;20041;-76
2022/11/16 15:11:03;;;;;;;10.82;2.33;;;;;;;;;;5067613;28;20080;-81
2022/11/16 15:13:30;;;;;;;9.25;2.70;;;;;;;;;;5056592;28;20041;-82
2022/11/16 15:16:09;;;;;;;11.25;2.55;;;;;;;;;;5067036;28;20044;-81
2022/11/16 15:18:36;;;;;;;8.90;2.70;;;;;;;;;;5083177;28;20049;-80